createdAt,value
2022-10-20T00:09:15.627Z,8.60
2022-10-20T00:19:19.059Z,9.80
2022-10-20T00:29:22.651Z,10.50
2022-10-20T00:39:26.565Z,8.30
2022-10-20T00:49:30.632Z,9.30
2022-10-20T00:59:38.562Z,9.00
2022-10-20T01:09:44.144Z,9.60
2022-10-20T01:20:23.409Z,10.80
2022-10-20T01:30:27.110Z,10.80
2022-10-20T01:40:35.433Z,9.80
2022-10-20T01:50:43.546Z,10.40
2022-10-20T02:00:49.766Z,9.40
2022-10-20T02:10:58.863Z,9.90
2022-10-20T02:21:04.226Z,8.90
2022-10-20T02:31:08.418Z,8.50
2022-10-20T02:41:11.777Z,7.60
2022-10-20T02:51:17.670Z,9.70
2022-10-20T03:01:22.723Z,8.70
2022-10-20T03:11:25.984Z,10.20
2022-10-20T03:21:29.379Z,11.80
2022-10-20T03:31:32.832Z,11.50
2022-10-20T03:41:36.088Z,12.00
2022-10-20T03:51:39.474Z,13.00
2022-10-20T04:01:46.706Z,13.30
2022-10-20T04:11:50.084Z,11.60
2022-10-20T04:21:56.046Z,17.10
2022-10-20T04:31:59.608Z,15.20
2022-10-20T04:42:09.177Z,15.60
2022-10-20T04:52:12.583Z,16.70
2022-10-20T05:02:20.412Z,18.70
2022-10-20T05:12:23.845Z,12.80
2022-10-20T05:22:31.433Z,16.10
2022-10-20T05:32:38.843Z,16.30
2022-10-20T05:42:46.593Z,17.00
2022-10-20T05:52:50.946Z,29.10
2022-10-20T06:02:54.841Z,48.20
2022-10-20T06:12:58.204Z,57.00
2022-10-20T06:23:03.516Z,45.00
2022-10-20T06:33:06.836Z,45.80
2022-10-20T06:43:14.710Z,55.90
2022-10-20T06:53:20.491Z,52.60
2022-10-20T07:03:24.631Z,61.50
2022-10-20T07:13:29.211Z,49.60
2022-10-20T07:23:34.341Z,53.30
2022-10-20T07:33:38.998Z,50.50
2022-10-20T07:43:43.862Z,49.00
2022-10-20T07:53:48.613Z,49.60
2022-10-20T08:03:54.939Z,45.40
2022-10-20T08:14:01.854Z,48.10
2022-10-20T08:24:06.014Z,49.70
2022-10-20T08:34:09.371Z,56.20
2022-10-20T08:44:28.645Z,61.50
2022-10-20T08:54:36.259Z,74.30
2022-10-20T09:04:47.947Z,69.90
2022-10-20T09:14:54.533Z,54.50
2022-10-20T09:25:00.431Z,54.40
2022-10-20T09:35:13.247Z,50.40
2022-10-20T09:45:23.350Z,37.30
2022-10-20T09:55:31.259Z,25.70
2022-10-20T10:05:36.825Z,14.10
2022-10-20T10:15:41.144Z,14.60
2022-10-20T10:25:44.771Z,13.10
2022-10-20T10:35:49.322Z,10.20
2022-10-20T10:45:58.802Z,8.70
2022-10-20T10:56:23.759Z,6.60
2022-10-20T11:06:54.285Z,8.50
2022-10-20T11:17:22.600Z,3.80
2022-10-20T11:27:29.855Z,4.10
2022-10-20T11:37:48.660Z,3.20
2022-10-20T11:48:04.881Z,3.40
2022-10-20T11:58:53.481Z,3.10
2022-10-20T12:09:41.233Z,3.10
2022-10-20T12:19:44.917Z,4.20
2022-10-20T12:30:52.355Z,1.50
2022-10-20T12:40:58.625Z,2.00
2022-10-20T12:51:17.269Z,2.90
2022-10-20T13:01:20.851Z,2.00
2022-10-20T13:11:36.221Z,2.80
2022-10-20T13:21:39.884Z,2.40
2022-10-20T13:42:33.175Z,2.90
2022-10-20T13:52:43.122Z,4.20
2022-10-20T14:02:59.519Z,2.50
2022-10-20T14:13:07.736Z,4.50
2022-10-20T14:23:12.049Z,2.40
2022-10-20T14:33:16.473Z,3.70
2022-10-20T14:43:41.279Z,7.10
2022-10-20T14:53:45.451Z,2.80
2022-10-20T15:14:24.253Z,9.20
2022-10-20T15:24:28.844Z,4.40
2022-10-20T15:34:32.305Z,5.50
2022-10-20T15:44:36.523Z,7.30
2022-10-20T15:54:39.868Z,7.70
2022-10-20T16:15:12.573Z,15.10
2022-10-20T16:25:16.134Z,20.20
2022-10-20T16:35:22.613Z,25.40
2022-10-20T16:45:26.255Z,19.10
2022-10-20T16:55:29.716Z,18.40
2022-10-20T17:05:33.156Z,19.10
2022-10-20T17:15:37.161Z,18.80
2022-10-20T17:25:52.344Z,13.40
2022-10-20T17:36:00.839Z,14.20
2022-10-20T17:46:09.785Z,14.20
2022-10-20T17:56:51.155Z,15.80
2022-10-20T18:07:08.229Z,18.60
2022-10-20T18:17:14.003Z,20.10
2022-10-20T18:27:17.907Z,19.80
2022-10-20T18:37:21.707Z,17.90
2022-10-20T18:47:28.428Z,20.60
2022-10-20T18:57:40.708Z,24.10
2022-10-20T19:18:26.736Z,22.30
2022-10-20T19:28:32.430Z,26.50
2022-10-20T19:38:36.759Z,27.50
2022-10-20T19:48:40.198Z,32.10
2022-10-20T19:58:46.619Z,29.90
2022-10-20T20:08:55.202Z,30.50
2022-10-20T20:18:59.007Z,38.80
2022-10-20T20:29:03.827Z,44.90
2022-10-20T20:39:07.787Z,47.30
2022-10-20T20:49:11.453Z,46.80
2022-10-20T20:59:15.235Z,46.50
2022-10-20T21:09:18.760Z,45.70
2022-10-20T21:19:22.223Z,48.80
2022-10-20T21:29:25.947Z,54.70
2022-10-20T21:49:33.972Z,43.10
2022-10-20T21:59:37.242Z,43.70
2022-10-20T22:09:43.425Z,41.00
2022-10-20T22:19:47.299Z,45.10
2022-10-20T22:29:51.430Z,38.60
2022-10-20T22:39:56.452Z,38.90
2022-10-20T22:49:59.693Z,32.70
2022-10-20T23:00:05.809Z,28.90
2022-10-20T23:10:10.447Z,30.20
2022-10-20T23:20:13.786Z,27.50
2022-10-20T23:30:17.105Z,27.50
2022-10-20T23:40:20.405Z,27.90
2022-10-20T23:50:26.315Z,28.10
